Terminal Aerodrome Forecast
Issued by NWS

Home | Current Version | Previous Version | Text Only | Print | Product List | Glossary On
Versions: 1 2 3 4 5 6 7 8 9 10 11 12 13 14 15 16 17 18 19 20 21 22 23 24 25 26 27 28 29 30 31 32 33 34 35 36 37 38
000
FTUS41 KBOX 230542
TAFHYA
TAF
KHYA 230542Z 2306/2406 06014G29KT 6SM -DZ OVC010
     FM231200 06016G28KT 6SM -DZ BKN010
     FM231400 06017G28KT 6SM -DZ OVC015
     FM231600 07018G30KT P6SM -SHRADZ OVC015
     FM232100 06023G40KT P6SM -SHRADZ OVC015
     FM240100 07026G47KT 3SM -RA BR OVC015
     FM240300 07027G47KT 2SM -RA BR OVC008=

USA.gov is the U.S. government's official web portal to all federal, state and local government web resources and services.